sensor_id;sensor_type;location;lat;lon;timestamp;P1;durP1;ratioP1;P2;durP2;ratioP2
31746;SDS011;18319;48.974;8.462;2023-11-19T00:02:18;0.50;;;0.50;;
31746;SDS011;18319;48.974;8.462;2023-11-19T00:04:47;0.40;;;0.40;;
31746;SDS011;18319;48.974;8.462;2023-11-19T00:07:13;0.38;;;0.38;;
31746;SDS011;18319;48.974;8.462;2023-11-19T00:09:41;0.40;;;0.40;;
31746;SDS011;18319;48.974;8.462;2023-11-19T00:12:08;1.50;;;0.60;;
31746;SDS011;18319;48.974;8.462;2023-11-19T00:14:35;0.63;;;0.30;;
31746;SDS011;18319;48.974;8.462;2023-11-19T00:17:02;0.40;;;0.40;;
31746;SDS011;18319;48.974;8.462;2023-11-19T00:19:29;0.90;;;0.38;;
31746;SDS011;18319;48.974;8.462;2023-11-19T00:21:57;0.77;;;0.50;;
31746;SDS011;18319;48.974;8.462;2023-11-19T00:24:28;0.30;;;0.30;;
31746;SDS011;18319;48.974;8.462;2023-11-19T00:26:55;0.63;;;0.30;;
31746;SDS011;18319;48.974;8.462;2023-11-19T00:29:22;0.28;;;0.28;;
31746;SDS011;18319;48.974;8.462;2023-11-19T00:31:49;0.20;;;0.20;;
31746;SDS011;18319;48.974;8.462;2023-11-19T00:34:16;0.20;;;0.20;;
31746;SDS011;18319;48.974;8.462;2023-11-19T00:36:46;0.30;;;0.30;;
31746;SDS011;18319;48.974;8.462;2023-11-19T00:39:14;0.57;;;0.40;;
31746;SDS011;18319;48.974;8.462;2023-11-19T00:41:42;0.32;;;0.32;;
31746;SDS011;18319;48.974;8.462;2023-11-19T00:44:11;0.30;;;0.30;;
31746;SDS011;18319;48.974;8.462;2023-11-19T00:46:37;0.30;;;0.30;;
31746;SDS011;18319;48.974;8.462;2023-11-19T00:49:04;0.30;;;0.30;;
31746;SDS011;18319;48.974;8.462;2023-11-19T00:51:31;0.47;;;0.47;;
31746;SDS011;18319;48.974;8.462;2023-11-19T00:53:58;2.30;;;0.40;;
31746;SDS011;18319;48.974;8.462;2023-11-19T00:56:27;0.80;;;0.25;;
31746;SDS011;18319;48.974;8.462;2023-11-19T00:58:54;1.45;;;0.20;;
31746;SDS011;18319;48.974;8.462;2023-11-19T01:01:21;1.17;;;0.20;;
31746;SDS011;18319;48.974;8.462;2023-11-19T01:03:48;0.30;;;0.30;;
31746;SDS011;18319;48.974;8.462;2023-11-19T01:06:15;1.95;;;0.98;;
31746;SDS011;18319;48.974;8.462;2023-11-19T01:08:52;0.30;;;0.30;;
31746;SDS011;18319;48.974;8.462;2023-11-19T01:11:20;0.30;;;0.30;;
31746;SDS011;18319;48.974;8.462;2023-11-19T01:13:48;0.40;;;0.20;;
31746;SDS011;18319;48.974;8.462;2023-11-19T01:16:15;0.73;;;0.22;;
31746;SDS011;18319;48.974;8.462;2023-11-19T01:18:42;0.22;;;0.22;;
31746;SDS011;18319;48.974;8.462;2023-11-19T01:21:09;0.20;;;0.20;;
31746;SDS011;18319;48.974;8.462;2023-11-19T01:23:35;0.20;;;0.20;;
31746;SDS011;18319;48.974;8.462;2023-11-19T01:26:03;1.25;;;0.30;;
31746;SDS011;18319;48.974;8.462;2023-11-19T01:28:31;0.20;;;0.20;;
31746;SDS011;18319;48.974;8.462;2023-11-19T01:30:59;0.22;;;0.22;;
31746;SDS011;18319;48.974;8.462;2023-11-19T01:33:26;0.30;;;0.30;;
31746;SDS011;18319;48.974;8.462;2023-11-19T01:35:53;1.27;;;0.30;;
31746;SDS011;18319;48.974;8.462;2023-11-19T01:38:23;0.30;;;0.30;;
31746;SDS011;18319;48.974;8.462;2023-11-19T01:40:50;0.20;;;0.20;;
31746;SDS011;18319;48.974;8.462;2023-11-19T01:43:32;0.28;;;0.28;;
31746;SDS011;18319;48.974;8.462;2023-11-19T01:46:01;0.73;;;0.20;;
31746;SDS011;18319;48.974;8.462;2023-11-19T01:48:30;0.20;;;0.20;;
31746;SDS011;18319;48.974;8.462;2023-11-19T01:50:59;0.30;;;0.30;;
31746;SDS011;18319;48.974;8.462;2023-11-19T01:53:30;0.10;;;0.10;;
31746;SDS011;18319;48.974;8.462;2023-11-19T01:55:57;0.30;;;0.30;;
31746;SDS011;18319;48.974;8.462;2023-11-19T01:58:25;0.20;;;0.20;;
31746;SDS011;18319;48.974;8.462;2023-11-19T02:00:55;0.20;;;0.20;;
31746;SDS011;18319;48.974;8.462;2023-11-19T02:03:24;0.20;;;0.20;;
31746;SDS011;18319;48.974;8.462;2023-11-19T02:05:54;0.30;;;0.20;;
31746;SDS011;18319;48.974;8.462;2023-11-19T02:08:21;0.38;;;0.38;;
31746;SDS011;18319;48.974;8.462;2023-11-19T02:10:48;0.20;;;0.20;;
31746;SDS011;18319;48.974;8.462;2023-11-19T02:13:16;1.52;;;0.30;;
31746;SDS011;18319;48.974;8.462;2023-11-19T02:15:44;2.10;;;0.20;;
31746;SDS011;18319;48.974;8.462;2023-11-19T02:18:20;0.32;;;0.32;;
31746;SDS011;18319;48.974;8.462;2023-11-19T02:20:50;0.22;;;0.22;;
31746;SDS011;18319;48.974;8.462;2023-11-19T02:23:17;0.65;;;0.20;;
31746;SDS011;18319;48.974;8.462;2023-11-19T02:25:47;0.60;;;0.40;;
31746;SDS011;18319;48.974;8.462;2023-11-19T02:28:19;0.30;;;0.30;;
31746;SDS011;18319;48.974;8.462;2023-11-19T02:30:47;0.35;;;0.35;;
31746;SDS011;18319;48.974;8.462;2023-11-19T02:33:13;0.30;;;0.30;;
31746;SDS011;18319;48.974;8.462;2023-11-19T02:35:40;0.30;;;0.30;;
31746;SDS011;18319;48.974;8.462;2023-11-19T02:38:07;2.58;;;0.40;;
31746;SDS011;18319;48.974;8.462;2023-11-19T02:40:34;1.50;;;0.30;;
31746;SDS011;18319;48.974;8.462;2023-11-19T02:43:01;2.97;;;0.73;;
31746;SDS011;18319;48.974;8.462;2023-11-19T02:45:31;3.03;;;0.47;;
31746;SDS011;18319;48.974;8.462;2023-11-19T02:47:58;0.63;;;0.35;;
31746;SDS011;18319;48.974;8.462;2023-11-19T02:50:27;0.52;;;0.52;;
31746;SDS011;18319;48.974;8.462;2023-11-19T02:52:54;0.93;;;0.30;;
31746;SDS011;18319;48.974;8.462;2023-11-19T02:55:22;0.30;;;0.22;;
31746;SDS011;18319;48.974;8.462;2023-11-19T02:57:49;0.30;;;0.30;;
31746;SDS011;18319;48.974;8.462;2023-11-19T03:00:18;1.75;;;0.45;;
31746;SDS011;18319;48.974;8.462;2023-11-19T03:02:58;0.70;;;0.40;;
31746;SDS011;18319;48.974;8.462;2023-11-19T03:05:30;0.60;;;0.40;;
31746;SDS011;18319;48.974;8.462;2023-11-19T03:07:57;0.55;;;0.30;;
31746;SDS011;18319;48.974;8.462;2023-11-19T03:10:24;0.50;;;0.50;;
31746;SDS011;18319;48.974;8.462;2023-11-19T03:12:51;0.30;;;0.25;;
31746;SDS011;18319;48.974;8.462;2023-11-19T03:15:20;0.40;;;0.40;;
31746;SDS011;18319;48.974;8.462;2023-11-19T03:17:47;0.30;;;0.30;;
31746;SDS011;18319;48.974;8.462;2023-11-19T03:20:15;0.30;;;0.30;;
31746;SDS011;18319;48.974;8.462;2023-11-19T03:22:42;2.05;;;0.50;;
31746;SDS011;18319;48.974;8.462;2023-11-19T03:25:10;0.32;;;0.30;;
31746;SDS011;18319;48.974;8.462;2023-11-19T03:27:38;0.38;;;0.38;;
31746;SDS011;18319;48.974;8.462;2023-11-19T03:30:07;0.30;;;0.30;;
31746;SDS011;18319;48.974;8.462;2023-11-19T03:32:35;0.57;;;0.57;;
31746;SDS011;18319;48.974;8.462;2023-11-19T03:35:04;0.30;;;0.30;;
31746;SDS011;18319;48.974;8.462;2023-11-19T03:37:35;0.40;;;0.40;;
31746;SDS011;18319;48.974;8.462;2023-11-19T03:40:03;0.30;;;0.30;;
31746;SDS011;18319;48.974;8.462;2023-11-19T03:42:30;0.40;;;0.40;;
31746;SDS011;18319;48.974;8.462;2023-11-19T03:44:57;0.40;;;0.40;;
31746;SDS011;18319;48.974;8.462;2023-11-19T03:47:25;0.50;;;0.38;;
31746;SDS011;18319;48.974;8.462;2023-11-19T03:49:51;1.02;;;0.30;;
31746;SDS011;18319;48.974;8.462;2023-11-19T03:52:18;0.40;;;0.40;;
31746;SDS011;18319;48.974;8.462;2023-11-19T03:54:46;0.30;;;0.30;;
31746;SDS011;18319;48.974;8.462;2023-11-19T03:57:13;0.32;;;0.30;;
31746;SDS011;18319;48.974;8.462;2023-11-19T03:59:40;0.50;;;0.50;;
31746;SDS011;18319;48.974;8.462;2023-11-19T04:02:07;0.45;;;0.30;;
31746;SDS011;18319;48.974;8.462;2023-11-19T04:04:35;2.35;;;0.40;;
31746;SDS011;18319;48.974;8.462;2023-11-19T04:07:02;0.20;;;0.20;;
31746;SDS011;18319;48.974;8.462;2023-11-19T04:09:29;3.45;;;0.25;;
31746;SDS011;18319;48.974;8.462;2023-11-19T04:11:59;1.13;;;1.13;;
31746;SDS011;18319;48.974;8.462;2023-11-19T04:14:26;0.52;;;0.52;;
31746;SDS011;18319;48.974;8.462;2023-11-19T04:16:53;0.50;;;0.50;;
31746;SDS011;18319;48.974;8.462;2023-11-19T04:19:20;1.40;;;0.30;;
31746;SDS011;18319;48.974;8.462;2023-11-19T04:21:47;0.47;;;0.32;;
31746;SDS011;18319;48.974;8.462;2023-11-19T04:24:13;0.30;;;0.30;;
31746;SDS011;18319;48.974;8.462;2023-11-19T04:26:40;0.20;;;0.20;;
31746;SDS011;18319;48.974;8.462;2023-11-19T04:29:11;0.30;;;0.30;;
31746;SDS011;18319;48.974;8.462;2023-11-19T04:31:39;0.30;;;0.30;;
31746;SDS011;18319;48.974;8.462;2023-11-19T04:34:06;0.20;;;0.20;;
31746;SDS011;18319;48.974;8.462;2023-11-19T04:36:33;0.40;;;0.40;;
31746;SDS011;18319;48.974;8.462;2023-11-19T04:39:02;1.35;;;0.30;;
31746;SDS011;18319;48.974;8.462;2023-11-19T04:41:33;0.63;;;0.30;;
31746;SDS011;18319;48.974;8.462;2023-11-19T04:44:00;0.20;;;0.20;;
31746;SDS011;18319;48.974;8.462;2023-11-19T04:46:28;0.95;;;0.30;;
31746;SDS011;18319;48.974;8.462;2023-11-19T04:48:55;0.30;;;0.30;;
31746;SDS011;18319;48.974;8.462;2023-11-19T04:51:21;0.30;;;0.30;;
31746;SDS011;18319;48.974;8.462;2023-11-19T04:53:48;0.20;;;0.20;;
31746;SDS011;18319;48.974;8.462;2023-11-19T04:56:15;0.20;;;0.20;;
31746;SDS011;18319;48.974;8.462;2023-11-19T04:58:44;0.68;;;0.40;;
31746;SDS011;18319;48.974;8.462;2023-11-19T05:01:13;0.20;;;0.20;;
31746;SDS011;18319;48.974;8.462;2023-11-19T05:03:43;0.20;;;0.20;;
31746;SDS011;18319;48.974;8.462;2023-11-19T05:06:10;0.20;;;0.20;;
31746;SDS011;18319;48.974;8.462;2023-11-19T05:08:37;0.32;;;0.20;;
31746;SDS011;18319;48.974;8.462;2023-11-19T05:11:04;0.25;;;0.20;;
31746;SDS011;18319;48.974;8.462;2023-11-19T05:13:31;0.30;;;0.30;;
31746;SDS011;18319;48.974;8.462;2023-11-19T05:15:58;0.30;;;0.30;;
31746;SDS011;18319;48.974;8.462;2023-11-19T05:18:25;0.20;;;0.20;;
31746;SDS011;18319;48.974;8.462;2023-11-19T05:20:53;0.28;;;0.28;;
31746;SDS011;18319;48.974;8.462;2023-11-19T05:23:19;0.13;;;0.13;;
31746;SDS011;18319;48.974;8.462;2023-11-19T05:25:46;0.20;;;0.20;;
31746;SDS011;18319;48.974;8.462;2023-11-19T05:28:13;0.45;;;0.30;;
31746;SDS011;18319;48.974;8.462;2023-11-19T05:30:40;0.20;;;0.20;;
31746;SDS011;18319;48.974;8.462;2023-11-19T05:33:07;0.30;;;0.30;;
31746;SDS011;18319;48.974;8.462;2023-11-19T05:35:34;0.35;;;0.20;;
31746;SDS011;18319;48.974;8.462;2023-11-19T05:38:02;0.15;;;0.15;;
31746;SDS011;18319;48.974;8.462;2023-11-19T05:40:31;0.85;;;0.30;;
31746;SDS011;18319;48.974;8.462;2023-11-19T05:42:57;0.25;;;0.25;;
31746;SDS011;18319;48.974;8.462;2023-11-19T05:45:24;1.25;;;0.20;;
31746;SDS011;18319;48.974;8.462;2023-11-19T05:47:51;0.30;;;0.30;;
31746;SDS011;18319;48.974;8.462;2023-11-19T05:50:18;0.20;;;0.20;;
31746;SDS011;18319;48.974;8.462;2023-11-19T05:52:45;0.75;;;0.20;;
31746;SDS011;18319;48.974;8.462;2023-11-19T05:55:13;0.20;;;0.20;;
31746;SDS011;18319;48.974;8.462;2023-11-19T05:57:40;0.55;;;0.20;;
31746;SDS011;18319;48.974;8.462;2023-11-19T06:00:07;0.20;;;0.20;;
31746;SDS011;18319;48.974;8.462;2023-11-19T06:02:38;0.30;;;0.30;;
31746;SDS011;18319;48.974;8.462;2023-11-19T06:05:04;0.20;;;0.20;;
31746;SDS011;18319;48.974;8.462;2023-11-19T06:07:32;0.73;;;0.70;;
31746;SDS011;18319;48.974;8.462;2023-11-19T06:09:59;0.38;;;0.38;;
31746;SDS011;18319;48.974;8.462;2023-11-19T06:12:27;0.20;;;0.20;;
31746;SDS011;18319;48.974;8.462;2023-11-19T06:14:54;0.20;;;0.20;;
31746;SDS011;18319;48.974;8.462;2023-11-19T06:17:21;0.17;;;0.17;;
31746;SDS011;18319;48.974;8.462;2023-11-19T06:19:48;0.68;;;0.20;;
31746;SDS011;18319;48.974;8.462;2023-11-19T06:22:15;0.45;;;0.28;;
31746;SDS011;18319;48.974;8.462;2023-11-19T06:24:42;0.15;;;0.15;;
31746;SDS011;18319;48.974;8.462;2023-11-19T06:27:08;0.20;;;0.20;;
31746;SDS011;18319;48.974;8.462;2023-11-19T06:29:36;0.10;;;0.10;;
31746;SDS011;18319;48.974;8.462;2023-11-19T06:32:05;0.30;;;0.30;;
31746;SDS011;18319;48.974;8.462;2023-11-19T06:34:33;0.20;;;0.20;;
31746;SDS011;18319;48.974;8.462;2023-11-19T06:37:00;0.20;;;0.20;;
31746;SDS011;18319;48.974;8.462;2023-11-19T06:39:28;1.38;;;0.17;;
31746;SDS011;18319;48.974;8.462;2023-11-19T06:41:54;1.00;;;0.20;;
31746;SDS011;18319;48.974;8.462;2023-11-19T06:44:21;0.35;;;0.35;;
31746;SDS011;18319;48.974;8.462;2023-11-19T06:46:51;2.38;;;0.20;;
31746;SDS011;18319;48.974;8.462;2023-11-19T06:49:18;0.52;;;0.17;;
31746;SDS011;18319;48.974;8.462;2023-11-19T06:51:45;0.30;;;0.30;;
31746;SDS011;18319;48.974;8.462;2023-11-19T06:54:12;0.20;;;0.20;;
31746;SDS011;18319;48.974;8.462;2023-11-19T06:56:39;0.13;;;0.13;;
31746;SDS011;18319;48.974;8.462;2023-11-19T06:59:06;0.30;;;0.30;;
31746;SDS011;18319;48.974;8.462;2023-11-19T07:01:34;0.30;;;0.30;;
31746;SDS011;18319;48.974;8.462;2023-11-19T07:04:03;0.20;;;0.20;;
31746;SDS011;18319;48.974;8.462;2023-11-19T07:06:34;0.43;;;0.43;;
31746;SDS011;18319;48.974;8.462;2023-11-19T07:09:01;0.20;;;0.20;;
31746;SDS011;18319;48.974;8.462;2023-11-19T07:11:34;0.10;;;0.10;;
31746;SDS011;18319;48.974;8.462;2023-11-19T07:14:01;0.20;;;0.20;;
31746;SDS011;18319;48.974;8.462;2023-11-19T07:16:29;0.20;;;0.20;;
31746;SDS011;18319;48.974;8.462;2023-11-19T07:18:55;0.20;;;0.20;;
31746;SDS011;18319;48.974;8.462;2023-11-19T07:21:25;1.10;;;0.20;;
31746;SDS011;18319;48.974;8.462;2023-11-19T07:23:53;0.20;;;0.20;;
31746;SDS011;18319;48.974;8.462;2023-11-19T07:26:20;1.92;;;0.30;;
31746;SDS011;18319;48.974;8.462;2023-11-19T07:28:46;1.85;;;0.20;;
31746;SDS011;18319;48.974;8.462;2023-11-19T07:31:13;1.17;;;0.20;;
31746;SDS011;18319;48.974;8.462;2023-11-19T07:33:40;2.08;;;0.30;;
31746;SDS011;18319;48.974;8.462;2023-11-19T07:36:08;0.10;;;0.10;;
31746;SDS011;18319;48.974;8.462;2023-11-19T07:38:36;2.28;;;0.20;;
31746;SDS011;18319;48.974;8.462;2023-11-19T07:41:03;0.20;;;0.20;;
31746;SDS011;18319;48.974;8.462;2023-11-19T07:43:31;0.45;;;0.20;;
31746;SDS011;18319;48.974;8.462;2023-11-19T07:45:58;0.17;;;0.17;;
31746;SDS011;18319;48.974;8.462;2023-11-19T07:48:25;0.70;;;0.50;;
31746;SDS011;18319;48.974;8.462;2023-11-19T07:50:52;0.20;;;0.20;;
31746;SDS011;18319;48.974;8.462;2023-11-19T07:53:19;0.60;;;0.10;;
31746;SDS011;18319;48.974;8.462;2023-11-19T07:55:47;0.20;;;0.20;;
31746;SDS011;18319;48.974;8.462;2023-11-19T07:58:14;0.15;;;0.15;;
31746;SDS011;18319;48.974;8.462;2023-11-19T08:00:41;0.10;;;0.10;;
31746;SDS011;18319;48.974;8.462;2023-11-19T08:03:08;2.38;;;0.40;;
31746;SDS011;18319;48.974;8.462;2023-11-19T08:05:34;0.22;;;0.22;;
31746;SDS011;18319;48.974;8.462;2023-11-19T08:08:01;0.28;;;0.10;;
31746;SDS011;18319;48.974;8.462;2023-11-19T08:10:28;0.20;;;0.20;;
31746;SDS011;18319;48.974;8.462;2023-11-19T08:12:56;0.30;;;0.30;;
31746;SDS011;18319;48.974;8.462;2023-11-19T08:15:23;1.23;;;0.30;;
31746;SDS011;18319;48.974;8.462;2023-11-19T08:17:50;1.35;;;0.20;;
31746;SDS011;18319;48.974;8.462;2023-11-19T08:20:17;4.22;;;1.13;;
31746;SDS011;18319;48.974;8.462;2023-11-19T08:22:43;0.98;;;0.20;;
31746;SDS011;18319;48.974;8.462;2023-11-19T08:25:10;1.45;;;0.30;;
31746;SDS011;18319;48.974;8.462;2023-11-19T08:27:38;1.38;;;0.30;;
31746;SDS011;18319;48.974;8.462;2023-11-19T08:30:06;0.25;;;0.22;;
31746;SDS011;18319;48.974;8.462;2023-11-19T08:32:34;1.70;;;1.60;;
31746;SDS011;18319;48.974;8.462;2023-11-19T08:35:01;0.88;;;0.88;;
31746;SDS011;18319;48.974;8.462;2023-11-19T08:37:28;1.25;;;0.50;;
31746;SDS011;18319;48.974;8.462;2023-11-19T08:39:54;0.93;;;0.93;;
31746;SDS011;18319;48.974;8.462;2023-11-19T08:42:21;0.50;;;0.50;;
31746;SDS011;18319;48.974;8.462;2023-11-19T08:44:48;0.57;;;0.57;;
31746;SDS011;18319;48.974;8.462;2023-11-19T08:47:20;1.20;;;1.20;;
31746;SDS011;18319;48.974;8.462;2023-11-19T08:49:48;0.57;;;0.57;;
31746;SDS011;18319;48.974;8.462;2023-11-19T08:52:16;0.68;;;0.68;;
31746;SDS011;18319;48.974;8.462;2023-11-19T08:54:43;1.75;;;0.40;;
31746;SDS011;18319;48.974;8.462;2023-11-19T08:57:10;1.05;;;0.43;;
31746;SDS011;18319;48.974;8.462;2023-11-19T08:59:37;1.63;;;0.60;;
31746;SDS011;18319;48.974;8.462;2023-11-19T09:02:04;0.63;;;0.50;;
31746;SDS011;18319;48.974;8.462;2023-11-19T09:04:33;1.70;;;0.50;;
31746;SDS011;18319;48.974;8.462;2023-11-19T09:07:01;1.25;;;0.25;;
31746;SDS011;18319;48.974;8.462;2023-11-19T09:09:28;0.30;;;0.30;;
31746;SDS011;18319;48.974;8.462;2023-11-19T09:11:55;0.20;;;0.20;;
31746;SDS011;18319;48.974;8.462;2023-11-19T09:14:22;0.82;;;0.30;;
31746;SDS011;18319;48.974;8.462;2023-11-19T09:16:50;0.70;;;0.52;;
31746;SDS011;18319;48.974;8.462;2023-11-19T09:19:17;0.52;;;0.40;;
31746;SDS011;18319;48.974;8.462;2023-11-19T09:21:46;0.30;;;0.30;;
31746;SDS011;18319;48.974;8.462;2023-11-19T09:24:14;1.10;;;0.30;;
31746;SDS011;18319;48.974;8.462;2023-11-19T09:26:41;0.47;;;0.40;;
31746;SDS011;18319;48.974;8.462;2023-11-19T09:29:08;0.30;;;0.30;;
31746;SDS011;18319;48.974;8.462;2023-11-19T09:31:35;0.63;;;0.40;;
31746;SDS011;18319;48.974;8.462;2023-11-19T09:34:04;0.88;;;0.30;;
31746;SDS011;18319;48.974;8.462;2023-11-19T09:36:31;0.90;;;0.50;;
31746;SDS011;18319;48.974;8.462;2023-11-19T09:38:59;0.40;;;0.40;;
31746;SDS011;18319;48.974;8.462;2023-11-19T09:41:27;1.33;;;0.40;;
31746;SDS011;18319;48.974;8.462;2023-11-19T09:43:55;2.30;;;0.45;;
31746;SDS011;18319;48.974;8.462;2023-11-19T09:46:21;0.30;;;0.30;;
31746;SDS011;18319;48.974;8.462;2023-11-19T09:48:50;2.30;;;0.43;;
31746;SDS011;18319;48.974;8.462;2023-11-19T09:51:20;1.73;;;0.43;;
31746;SDS011;18319;48.974;8.462;2023-11-19T09:53:47;0.70;;;0.32;;
31746;SDS011;18319;48.974;8.462;2023-11-19T09:56:16;0.57;;;0.47;;
31746;SDS011;18319;48.974;8.462;2023-11-19T09:58:43;0.25;;;0.25;;
31746;SDS011;18319;48.974;8.462;2023-11-19T10:01:10;1.30;;;0.93;;
31746;SDS011;18319;48.974;8.462;2023-11-19T10:03:37;2.25;;;0.50;;
31746;SDS011;18319;48.974;8.462;2023-11-19T10:06:08;0.60;;;0.60;;
31746;SDS011;18319;48.974;8.462;2023-11-19T10:08:36;0.52;;;0.50;;
31746;SDS011;18319;48.974;8.462;2023-11-19T10:11:04;0.50;;;0.50;;
31746;SDS011;18319;48.974;8.462;2023-11-19T10:13:33;0.93;;;0.40;;
31746;SDS011;18319;48.974;8.462;2023-11-19T10:16:03;1.63;;;0.35;;
31746;SDS011;18319;48.974;8.462;2023-11-19T10:18:33;1.20;;;0.50;;
31746;SDS011;18319;48.974;8.462;2023-11-19T10:21:03;1.10;;;0.40;;
31746;SDS011;18319;48.974;8.462;2023-11-19T10:23:31;0.50;;;0.50;;
31746;SDS011;18319;48.974;8.462;2023-11-19T10:26:13;0.95;;;0.80;;
31746;SDS011;18319;48.974;8.462;2023-11-19T10:28:41;0.65;;;0.60;;
31746;SDS011;18319;48.974;8.462;2023-11-19T10:31:11;0.50;;;0.50;;
31746;SDS011;18319;48.974;8.462;2023-11-19T10:33:38;0.68;;;0.45;;
31746;SDS011;18319;48.974;8.462;2023-11-19T10:36:05;0.50;;;0.50;;
31746;SDS011;18319;48.974;8.462;2023-11-19T10:38:32;2.13;;;0.32;;
31746;SDS011;18319;48.974;8.462;2023-11-19T10:41:00;0.85;;;0.50;;
31746;SDS011;18319;48.974;8.462;2023-11-19T10:43:27;3.67;;;0.63;;
31746;SDS011;18319;48.974;8.462;2023-11-19T10:45:56;0.50;;;0.47;;
31746;SDS011;18319;48.974;8.462;2023-11-19T10:48:37;0.98;;;0.50;;
31746;SDS011;18319;48.974;8.462;2023-11-19T10:51:05;2.55;;;0.30;;
31746;SDS011;18319;48.974;8.462;2023-11-19T10:53:33;1.38;;;0.40;;
31746;SDS011;18319;48.974;8.462;2023-11-19T10:56:04;0.45;;;0.45;;
31746;SDS011;18319;48.974;8.462;2023-11-19T10:58:36;0.68;;;0.68;;
31746;SDS011;18319;48.974;8.462;2023-11-19T11:01:13;1.30;;;1.20;;
31746;SDS011;18319;48.974;8.462;2023-11-19T11:03:43;1.95;;;0.77;;
31746;SDS011;18319;48.974;8.462;2023-11-19T11:06:13;1.30;;;0.52;;
31746;SDS011;18319;48.974;8.462;2023-11-19T11:08:40;0.63;;;0.50;;
31746;SDS011;18319;48.974;8.462;2023-11-19T11:11:07;1.13;;;0.50;;
31746;SDS011;18319;48.974;8.462;2023-11-19T11:13:38;1.92;;;0.93;;
31746;SDS011;18319;48.974;8.462;2023-11-19T11:16:08;0.85;;;0.82;;
31746;SDS011;18319;48.974;8.462;2023-11-19T11:18:37;1.05;;;0.75;;
31746;SDS011;18319;48.974;8.462;2023-11-19T11:21:04;2.38;;;0.40;;
31746;SDS011;18319;48.974;8.462;2023-11-19T11:23:56;0.47;;;0.47;;
31746;SDS011;18319;48.974;8.462;2023-11-19T11:26:58;1.40;;;0.60;;
31746;SDS011;18319;48.974;8.462;2023-11-19T11:29:55;3.95;;;0.63;;
31746;SDS011;18319;48.974;8.462;2023-11-19T11:32:32;0.73;;;0.73;;
31746;SDS011;18319;48.974;8.462;2023-11-19T11:35:12;1.70;;;0.88;;
31746;SDS011;18319;48.974;8.462;2023-11-19T11:37:53;6.72;;;0.77;;
31746;SDS011;18319;48.974;8.462;2023-11-19T11:40:26;0.82;;;0.70;;
31746;SDS011;18319;48.974;8.462;2023-11-19T11:42:53;1.10;;;0.55;;
31746;SDS011;18319;48.974;8.462;2023-11-19T11:45:20;0.70;;;0.70;;
31746;SDS011;18319;48.974;8.462;2023-11-19T11:48:15;0.68;;;0.63;;
31746;SDS011;18319;48.974;8.462;2023-11-19T11:50:53;1.35;;;0.90;;
31746;SDS011;18319;48.974;8.462;2023-11-19T11:53:24;3.50;;;1.58;;
31746;SDS011;18319;48.974;8.462;2023-11-19T11:55:52;0.93;;;0.70;;
31746;SDS011;18319;48.974;8.462;2023-11-19T11:58:25;3.65;;;0.50;;
31746;SDS011;18319;48.974;8.462;2023-11-19T12:00:52;1.15;;;1.05;;
31746;SDS011;18319;48.974;8.462;2023-11-19T12:03:20;1.67;;;0.70;;
31746;SDS011;18319;48.974;8.462;2023-11-19T12:05:48;1.65;;;0.60;;
31746;SDS011;18319;48.974;8.462;2023-11-19T12:08:18;1.33;;;1.20;;
31746;SDS011;18319;48.974;8.462;2023-11-19T12:10:46;3.25;;;0.60;;
31746;SDS011;18319;48.974;8.462;2023-11-19T12:13:15;0.45;;;0.40;;
31746;SDS011;18319;48.974;8.462;2023-11-19T12:18:36;0.73;;;0.47;;
31746;SDS011;18319;48.974;8.462;2023-11-19T12:21:05;2.13;;;0.93;;
31746;SDS011;18319;48.974;8.462;2023-11-19T12:23:35;1.50;;;0.43;;
31746;SDS011;18319;48.974;8.462;2023-11-19T12:26:21;0.77;;;0.77;;
31746;SDS011;18319;48.974;8.462;2023-11-19T12:28:57;3.58;;;0.60;;
31746;SDS011;18319;48.974;8.462;2023-11-19T12:31:25;1.13;;;0.65;;
31746;SDS011;18319;48.974;8.462;2023-11-19T12:33:52;0.75;;;0.75;;
31746;SDS011;18319;48.974;8.462;2023-11-19T12:36:19;1.15;;;0.70;;
31746;SDS011;18319;48.974;8.462;2023-11-19T12:38:48;0.68;;;0.68;;
31746;SDS011;18319;48.974;8.462;2023-11-19T12:41:16;2.03;;;1.33;;
31746;SDS011;18319;48.974;8.462;2023-11-19T12:43:45;0.90;;;0.90;;
31746;SDS011;18319;48.974;8.462;2023-11-19T12:46:18;1.30;;;1.10;;
31746;SDS011;18319;48.974;8.462;2023-11-19T12:48:46;2.88;;;0.93;;
31746;SDS011;18319;48.974;8.462;2023-11-19T12:51:13;1.50;;;1.40;;
31746;SDS011;18319;48.974;8.462;2023-11-19T12:53:50;1.55;;;1.45;;
31746;SDS011;18319;48.974;8.462;2023-11-19T12:56:19;1.60;;;1.00;;
31746;SDS011;18319;48.974;8.462;2023-11-19T12:58:46;2.50;;;0.50;;
31746;SDS011;18319;48.974;8.462;2023-11-19T13:01:15;2.58;;;1.10;;
31746;SDS011;18319;48.974;8.462;2023-11-19T13:03:43;3.40;;;1.15;;
31746;SDS011;18319;48.974;8.462;2023-11-19T13:06:11;0.77;;;0.77;;
31746;SDS011;18319;48.974;8.462;2023-11-19T13:08:39;1.40;;;0.95;;
31746;SDS011;18319;48.974;8.462;2023-11-19T13:11:08;0.63;;;0.63;;
31746;SDS011;18319;48.974;8.462;2023-11-19T13:13:54;1.58;;;0.85;;
31746;SDS011;18319;48.974;8.462;2023-11-19T13:16:21;1.60;;;0.70;;
31746;SDS011;18319;48.974;8.462;2023-11-19T13:18:48;1.58;;;0.93;;
31746;SDS011;18319;48.974;8.462;2023-11-19T13:21:15;1.23;;;0.50;;
31746;SDS011;18319;48.974;8.462;2023-11-19T13:23:42;3.33;;;0.77;;
31746;SDS011;18319;48.974;8.462;2023-11-19T13:26:10;1.30;;;0.60;;
31746;SDS011;18319;48.974;8.462;2023-11-19T13:28:38;1.33;;;0.88;;
31746;SDS011;18319;48.974;8.462;2023-11-19T13:31:05;1.95;;;0.73;;
31746;SDS011;18319;48.974;8.462;2023-11-19T13:33:32;0.73;;;0.50;;
31746;SDS011;18319;48.974;8.462;2023-11-19T13:35:59;0.75;;;0.40;;
31746;SDS011;18319;48.974;8.462;2023-11-19T13:38:30;1.33;;;0.60;;
31746;SDS011;18319;48.974;8.462;2023-11-19T13:40:57;3.35;;;0.52;;
31746;SDS011;18319;48.974;8.462;2023-11-19T13:43:26;0.88;;;0.60;;
31746;SDS011;18319;48.974;8.462;2023-11-19T13:45:53;0.40;;;0.40;;
31746;SDS011;18319;48.974;8.462;2023-11-19T13:48:20;1.65;;;0.60;;
31746;SDS011;18319;48.974;8.462;2023-11-19T13:50:47;5.78;;;1.15;;
31746;SDS011;18319;48.974;8.462;2023-11-19T13:53:14;1.00;;;0.70;;
31746;SDS011;18319;48.974;8.462;2023-11-19T13:55:41;0.98;;;0.82;;
31746;SDS011;18319;48.974;8.462;2023-11-19T13:58:08;1.33;;;0.90;;
31746;SDS011;18319;48.974;8.462;2023-11-19T14:00:36;1.73;;;0.82;;
31746;SDS011;18319;48.974;8.462;2023-11-19T14:03:04;1.10;;;0.95;;
31746;SDS011;18319;48.974;8.462;2023-11-19T14:05:31;2.38;;;0.50;;
31746;SDS011;18319;48.974;8.462;2023-11-19T14:07:58;1.52;;;0.75;;
31746;SDS011;18319;48.974;8.462;2023-11-19T14:10:26;2.00;;;0.52;;
31746;SDS011;18319;48.974;8.462;2023-11-19T14:12:53;0.73;;;0.73;;
31746;SDS011;18319;48.974;8.462;2023-11-19T14:15:20;1.52;;;1.05;;
31746;SDS011;18319;48.974;8.462;2023-11-19T14:17:48;0.85;;;0.65;;
31746;SDS011;18319;48.974;8.462;2023-11-19T14:20:15;1.00;;;0.90;;
31746;SDS011;18319;48.974;8.462;2023-11-19T14:22:42;2.10;;;2.00;;
31746;SDS011;18319;48.974;8.462;2023-11-19T14:25:10;3.58;;;1.15;;
31746;SDS011;18319;48.974;8.462;2023-11-19T14:27:37;4.93;;;1.08;;
31746;SDS011;18319;48.974;8.462;2023-11-19T14:30:05;1.10;;;0.98;;
31746;SDS011;18319;48.974;8.462;2023-11-19T14:32:33;0.68;;;0.68;;
31746;SDS011;18319;48.974;8.462;2023-11-19T14:35:01;1.73;;;1.23;;
31746;SDS011;18319;48.974;8.462;2023-11-19T14:37:28;1.40;;;1.30;;
31746;SDS011;18319;48.974;8.462;2023-11-19T14:39:55;0.88;;;0.88;;
31746;SDS011;18319;48.974;8.462;2023-11-19T14:42:22;2.00;;;0.80;;
31746;SDS011;18319;48.974;8.462;2023-11-19T14:44:50;2.00;;;0.70;;
31746;SDS011;18319;48.974;8.462;2023-11-19T14:47:17;0.85;;;0.77;;
31746;SDS011;18319;48.974;8.462;2023-11-19T14:49:44;1.88;;;0.70;;
31746;SDS011;18319;48.974;8.462;2023-11-19T14:52:12;1.17;;;0.90;;
31746;SDS011;18319;48.974;8.462;2023-11-19T14:54:40;1.35;;;0.80;;
31746;SDS011;18319;48.974;8.462;2023-11-19T14:57:07;1.48;;;1.00;;
31746;SDS011;18319;48.974;8.462;2023-11-19T14:59:34;1.17;;;1.08;;